Main page
METAR-TAF:

METAR-TAF

Airports :

Lydd Airport

Lydd, England

latitude: 50-57N, longitude: 000-56E, elevation: 3 m

Current weather observation

The report was made 40 minutes ago, at 13:50 UTC
Wind 14 kt from the South
Temperature 14°C
Humidity 77%
Pressure 1023 hPa
Visibility 10 km or more
Few clouds at a height of 1800 ft

METAR: EGMD 141350Z 18014KT 9999 FEW018 14/10 Q1023

Time: 14:30 (14:30 UTC)

Forecast

The report was made 3 hours and 26 minutes ago, at 11:04 UTC
Forecast valid from 14 at 12 UTC to 14 at 21 UTC
Wind 16 kt from the South
Visibility 10 km or more
Scattered clouds at a height of 1500 ft
Becoming
from 14 at 18 UTC to 14 at 21 UTC
Visibility: 8000 m
Broken clouds at a height of 900 ft
Temporary
from 14 at 20 UTC to 14 at 21 UTC
Visibility: 3000 m
Broken clouds at a height of 400 ft
mist

TAF: EGMD 141104Z 1412/1421 19016KT 9999 SCT015 BECMG 1418/1421 8000 BKN009 TEMPO 1420/1421 3000 BR BKN004

Weather observations and forecasts of more than 4000 airports (METAR and TAF reports).

The available stations are represented by yellow and red dots on the map.

Hover mouse over dot to see the name of the station.

Then click to see weather observations and forecasts.

To change the map : click on the green buttons with a black cross to zoom in, on the green button with a dash to zoom out, or on the green arrows for adjacent maps.


METAR-TAF: